Time;durP1;ratioP1;P1;durP2;ratioP2;P2;SDS_P1;SDS_P2;PMS_P1;PMS_P2;Temp;Humidity;BMP_temperature;BMP_pressure;BME280_temperature;BME280_humidity;BME280_pressure;Samples;Min_cycle;Max_cycle;Signal;HPM_P1;HPM_P2
2021/12/21 00:01:32;;;;;;;;;44.50;34.50;;;;;9.94;55.46;102122.50;5060993;28;63421;-75
2021/12/21 00:03:58;;;;;;;;;31.00;25.25;;;;;9.92;55.75;102125.03;5060730;28;62567;-75
2021/12/21 00:06:23;;;;;;;;;43.50;38.50;;;;;9.90;55.49;102121.41;5061242;28;61887;-75
2021/12/21 00:08:49;;;;;;;;;50.75;38.75;;;;;9.87;56.17;102113.31;5059451;28;62013;-74
2021/12/21 00:11:16;;;;;;;;;46.00;34.00;;;;;9.85;56.12;102119.25;5059019;28;63493;-76
2021/12/21 00:13:56;;;;;;;;;60.00;38.75;;;;;9.81;56.58;102105.00;5061356;28;61910;-75
2021/12/21 00:16:46;;;;;;;;;36.00;31.00;;;;;9.80;56.63;102106.72;5060922;28;61833;-75
2021/12/21 00:21:59;;;;;;;;;30.00;23.00;;;;;9.76;56.63;102095.94;5063657;28;62693;-75
2021/12/21 00:24:31;;;;;;;;;31.25;25.50;;;;;9.74;56.87;102097.53;5063918;28;61765;-75
2021/12/21 00:26:56;;;;;;;;;34.00;21.25;;;;;9.70;56.76;102100.75;5063858;28;61773;-75
2021/12/21 00:29:23;;;;;;;;;26.00;23.25;;;;;9.68;56.56;102095.41;5064432;28;61729;-75
2021/12/21 00:31:49;;;;;;;;;24.25;20.50;;;;;9.65;56.49;102107.41;5079102;28;63831;-75
2021/12/21 00:34:15;;;;;;;;;31.25;22.75;;;;;9.63;57.26;102100.31;5063731;28;61950;-76
2021/12/21 00:36:41;;;;;;;;;30.25;23.75;;;;;9.59;56.58;102098.28;5063970;28;61661;-75
2021/12/21 00:39:08;;;;;;;;;31.00;25.50;;;;;9.58;56.74;102096.50;5063752;28;61726;-75
2021/12/21 00:41:35;;;;;;;;;24.00;21.75;;;;;9.57;56.39;102104.22;5063735;28;62543;-75
2021/12/21 00:44:00;;;;;;;;;23.50;19.75;;;;;9.53;57.33;102089.09;5064219;28;61762;-75
2021/12/21 00:46:26;;;;;;;;;33.75;21.00;;;;;9.51;57.02;102106.44;5063796;28;61831;-75
2021/12/21 00:48:55;;;;;;;;;28.25;15.50;;;;;9.50;56.75;102109.88;5063834;28;61961;-75
2021/12/21 00:51:23;;;;;;;;;22.25;18.50;;;;;9.48;57.44;102101.88;5063414;28;61843;-75
2021/12/21 00:53:48;;;;;;;;;28.75;21.25;;;;;9.47;56.71;102099.16;5079310;28;61879;-75
2021/12/21 00:56:14;;;;;;;;;28.75;21.50;;;;;9.42;56.79;102097.09;5062678;28;61764;-75
2021/12/21 00:58:40;;;;;;;;;25.00;18.75;;;;;9.39;56.70;102101.25;5063735;28;61882;-75
2021/12/21 01:01:06;;;;;;;;;31.25;22.00;;;;;9.36;56.63;102096.72;5063399;28;62281;-75
2021/12/21 01:03:39;;;;;;;;;26.25;21.25;;;;;9.34;57.05;102092.13;5063758;28;61835;-75
2021/12/21 01:08:41;;;;;;;;;24.25;20.50;;;;;9.28;57.57;102090.00;5063672;28;61835;-75
2021/12/21 01:11:19;;;;;;;;;24.50;19.25;;;;;9.28;57.19;102095.25;5062788;28;61784;-75
2021/12/21 01:19:18;;;;;;;;;33.50;21.50;;;;;9.20;57.63;102078.97;5020617;28;61919;-75
2021/12/21 01:22:13;;;;;;;;;25.00;21.75;;;;;9.18;57.48;102077.97;5020180;28;61877;-75
2021/12/21 01:27:22;;;;;;;;;26.00;20.00;;;;;9.15;57.30;102083.00;5020329;28;61935;-75
2021/12/21 01:30:10;;;;;;;;;25.50;19.75;;;;;9.14;57.37;102080.25;5021348;28;62033;-75
2021/12/21 01:35:16;;;;;;;;;21.50;19.00;;;;;9.08;58.05;102083.34;5019749;28;61983;-75
2021/12/21 01:37:55;;;;;;;;;28.25;16.50;;;;;9.05;57.75;102083.13;5004042;28;62011;-75
2021/12/21 01:43:41;;;;;;;;;24.75;19.00;;;;;8.99;57.79;102085.31;5011325;28;61904;-75
2021/12/21 01:51:33;;;;;;;;;25.50;21.50;;;;;8.92;58.13;102081.34;5020213;28;61889;-75
2021/12/21 01:53:59;;;;;;;;;32.75;19.25;;;;;8.89;57.78;102075.91;5054452;28;62704;-75
2021/12/21 01:56:24;;;;;;;;;21.25;15.50;;;;;8.92;57.58;102086.59;5049737;28;61949;-75
2021/12/21 01:58:51;;;;;;;;;25.50;20.50;;;;;8.92;58.48;102091.81;5062830;28;61819;-75
2021/12/21 02:01:20;;;;;;;;;24.50;19.25;;;;;8.91;58.45;102079.53;5062964;28;62102;-75
2021/12/21 02:03:49;;;;;;;;;25.25;17.75;;;;;8.90;58.25;102082.94;5062280;28;61857;-75
2021/12/21 02:06:20;;;;;;;;;23.50;16.75;;;;;8.88;57.96;102075.78;5062205;28;61928;-74
2021/12/21 02:08:46;;;;;;;;;25.00;16.50;;;;;8.86;58.03;102086.13;5061624;28;61967;-75
2021/12/21 02:11:12;;;;;;;;;25.75;17.75;;;;;8.86;58.39;102080.00;5078113;28;62015;-75
2021/12/21 02:13:43;;;;;;;;;22.00;19.50;;;;;8.81;58.26;102077.06;5062179;28;61878;-75
2021/12/21 02:16:08;;;;;;;;;27.50;19.00;;;;;8.79;58.45;102069.09;5078226;28;62041;-75
2021/12/21 02:21:18;;;;;;;;;23.25;18.75;;;;;8.76;58.70;102074.13;5062325;28;62124;-75
2021/12/21 02:23:44;;;;;;;;;22.75;19.00;;;;;8.76;58.04;102073.19;5060651;28;61859;-75
2021/12/21 02:26:34;;;;;;;;;19.00;12.25;;;;;8.72;58.84;102064.22;5077353;28;61794;-75
2021/12/21 02:29:13;;;;;;;;;22.00;18.00;;;;;8.71;58.12;102062.38;5062655;28;61639;-75
2021/12/21 02:31:43;;;;;;;;;24.75;17.75;;;;;8.71;58.72;102056.25;5062454;28;61824;-75
2021/12/21 02:34:08;;;;;;;;;28.75;20.00;;;;;8.69;58.39;102058.75;5061195;28;61915;-75
2021/12/21 02:36:34;;;;;;;;;19.00;14.00;;;;;8.67;58.80;102056.81;5061940;28;62060;-75
2021/12/21 02:39:01;;;;;;;;;27.25;17.25;;;;;8.64;58.62;102051.38;5077990;28;61992;-75
2021/12/21 02:41:26;;;;;;;;;23.75;18.75;;;;;8.64;58.66;102043.53;5077740;28;62096;-75
2021/12/21 02:43:55;;;;;;;;;29.75;16.00;;;;;8.64;58.30;102047.03;5061176;28;61803;-75
2021/12/21 02:46:23;;;;;;;;;22.25;18.00;;;;;8.60;58.48;102048.50;5062015;28;61818;-75
2021/12/21 02:48:48;;;;;;;;;19.75;18.00;;;;;8.59;58.73;102037.94;5061761;28;61999;-75
2021/12/21 02:51:14;;;;;;;;;19.00;16.50;;;;;8.57;58.81;102037.84;5062378;28;61833;-74
2021/12/21 02:53:39;;;;;;;;;20.00;16.25;;;;;8.58;58.49;102036.13;5061471;28;61947;-75
2021/12/21 02:56:04;;;;;;;;;32.00;19.25;;;;;8.58;58.96;102038.75;5061160;28;61879;-75
2021/12/21 02:58:30;;;;;;;;;19.75;17.25;;;;;8.56;59.01;102037.72;5061537;28;61779;-75
2021/12/21 03:00:55;;;;;;;;;17.75;17.25;;;;;8.56;58.85;102030.78;5077891;28;61957;-75
2021/12/21 03:03:21;;;;;;;;;21.50;16.00;;;;;8.55;59.25;102031.59;5059383;28;63216;-75
2021/12/21 03:05:54;;;;;;;;;24.50;20.00;;;;;8.55;59.01;102030.69;5061670;28;61686;-76
2021/12/21 03:11:14;;;;;;;;;19.50;15.75;;;;;8.52;58.34;102027.81;5062006;28;61934;-75
2021/12/21 03:16:16;;;;;;;;;20.00;16.50;;;;;8.51;58.82;102024.31;5061810;28;61875;-75
2021/12/21 03:18:42;;;;;;;;;30.50;18.25;;;;;8.51;58.94;102024.31;5061184;28;62016;-75
2021/12/21 03:21:07;;;;;;;;;23.50;18.75;;;;;8.51;59.19;102026.03;5061876;28;61910;-75
2021/12/21 03:23:33;;;;;;;;;15.00;15.00;;;;;8.49;59.08;102031.13;5060884;28;62486;-75
2021/12/21 03:25:58;;;;;;;;;19.25;13.75;;;;;8.49;58.72;102031.13;5059888;28;62229;-74
2021/12/21 03:28:24;;;;;;;;;23.00;17.75;;;;;8.45;58.77;102026.47;5061639;28;61817;-75
2021/12/21 03:30:49;;;;;;;;;19.00;17.00;;;;;8.43;58.58;102030.69;5061829;28;61701;-75
2021/12/21 03:33:15;;;;;;;;;23.25;15.75;;;;;8.41;58.79;102034.88;5060589;28;61812;-75
2021/12/21 03:35:40;;;;;;;;;22.75;17.75;;;;;8.39;59.24;102033.84;5061097;28;61872;-75
2021/12/21 03:38:06;;;;;;;;;21.75;17.50;;;;;8.40;58.84;102035.66;5061333;28;61838;-75
2021/12/21 03:40:33;;;;;;;;;22.25;16.50;;;;;8.38;59.33;102026.78;5077152;28;61961;-75
2021/12/21 03:43:00;;;;;;;;;13.75;13.50;;;;;8.38;59.02;102034.66;5076464;28;61853;-75
2021/12/21 03:45:26;;;;;;;;;20.25;16.00;;;;;8.34;58.94;102032.59;5061432;28;62019;-75
2021/12/21 03:47:51;;;;;;;;;20.75;16.50;;;;;8.32;59.15;102031.56;5076189;28;62033;-75
2021/12/21 03:50:20;;;;;;;;;18.25;13.50;;;;;8.30;59.33;102027.94;5061496;28;61739;-75
2021/12/21 03:52:46;;;;;;;;;17.75;16.00;;;;;8.28;59.47;102033.03;5059222;28;65108;-75
2021/12/21 03:55:15;;;;;;;;;20.75;14.75;;;;;8.26;59.49;102033.75;5077592;28;61756;-75
2021/12/21 03:57:40;;;;;;;;;20.00;16.00;;;;;8.26;59.17;102031.13;5064224;28;61923;-75
2021/12/21 04:00:11;;;;;;;;;28.00;17.00;;;;;8.27;59.48;102043.38;5065076;28;61721;-75
2021/12/21 04:02:37;;;;;;;;;15.25;14.50;;;;;8.24;59.46;102035.31;5063633;28;62169;-75
2021/12/21 04:05:03;;;;;;;;;23.25;18.50;;;;;8.23;59.02;102036.16;5064309;28;61960;-75
2021/12/21 04:07:28;;;;;;;;;21.00;16.75;;;;;8.23;59.39;102037.03;5064883;28;62129;-75
2021/12/21 04:09:55;;;;;;;;;19.50;14.50;;;;;8.22;58.84;102026.47;5064628;28;61874;-75
2021/12/21 04:12:20;;;;;;;;;17.00;13.50;;;;;8.21;59.23;102025.56;5063895;28;61903;-75
2021/12/21 04:14:46;;;;;;;;;16.75;14.25;;;;;8.19;59.22;102016.69;5062529;28;62059;-75
2021/12/21 04:17:21;;;;;;;;;16.75;13.00;;;;;8.21;59.41;102015.09;5064551;28;61928;-76
2021/12/21 04:19:47;;;;;;;;;19.25;14.00;;;;;8.18;59.27;102014.84;5064588;28;61970;-74
2021/12/21 04:22:13;;;;;;;;;17.50;12.25;;;;;8.21;59.73;102022.03;5063817;28;62770;-75
2021/12/21 04:24:39;;;;;;;;;16.25;14.00;;;;;8.18;59.18;102023.63;5064228;28;61819;-75
2021/12/21 04:27:04;;;;;;;;;20.50;16.00;;;;;8.18;58.87;102014.84;5064147;28;61770;-75
2021/12/21 04:29:30;;;;;;;;;14.50;13.00;;;;;8.15;59.06;102007.69;5064227;28;62175;-75
2021/12/21 04:31:55;;;;;;;;;17.75;15.00;;;;;8.17;59.20;102008.72;5061867;28;63768;-75
2021/12/21 04:34:21;;;;;;;;;23.50;12.00;;;;;8.15;59.57;102007.69;5064128;28;62054;-75
2021/12/21 04:36:46;;;;;;;;;19.75;14.25;;;;;8.16;59.33;102012.16;5079570;28;61818;-75
2021/12/21 04:39:26;;;;;;;;;12.25;11.00;;;;;8.12;59.45;102002.25;5079930;28;61767;-76
2021/12/21 04:41:51;;;;;;;;;12.00;11.50;;;;;8.14;58.91;102012.81;5079008;28;64748;-75
2021/12/21 04:44:17;;;;;;;;;15.50;12.75;;;;;8.10;59.01;102013.41;5079445;28;61783;-75
2021/12/21 04:46:43;;;;;;;;;18.50;14.25;;;;;8.07;59.86;102014.06;5062207;28;61851;-75
2021/12/21 04:49:08;;;;;;;;;15.50;14.75;;;;;8.03;59.62;102021.56;5064155;28;61729;-75
2021/12/21 04:51:34;;;;;;;;;14.25;12.50;;;;;7.94;59.89;102014.84;5063511;28;62646;-75
2021/12/21 04:53:59;;;;;;;;;22.25;15.75;;;;;7.95;60.02;102013.16;5063653;28;61977;-75
2021/12/21 04:56:25;;;;;;;;;16.75;15.25;;;;;7.97;60.06;102008.97;5062835;28;61946;-75
2021/12/21 04:58:50;;;;;;;;;19.75;17.00;;;;;7.97;59.59;102009.88;5063366;28;61785;-75
2021/12/21 05:01:16;;;;;;;;;11.00;8.50;;;;;7.93;59.87;102007.81;5063389;28;62603;-75
2021/12/21 05:03:41;;;;;;;;;13.75;11.25;;;;;7.91;59.81;101995.44;5063816;28;61889;-75
2021/12/21 05:06:07;;;;;;;;;15.25;12.50;;;;;7.94;59.50;102008.72;5062911;28;62049;-75
2021/12/21 05:08:37;;;;;;;;;19.25;13.75;;;;;7.94;59.82;102003.50;5079534;28;62188;-74
2021/12/21 05:11:05;;;;;;;;;17.75;10.50;;;;;7.93;59.80;102009.53;5063016;28;62623;-75
2021/12/21 05:13:36;;;;;;;;;19.00;12.50;;;;;7.89;59.66;102005.75;5063208;28;61987;-75
2021/12/21 05:16:02;;;;;;;;;21.25;13.00;;;;;7.82;60.33;102010.41;5063480;28;61767;-75
2021/12/21 05:18:28;;;;;;;;;19.75;17.75;;;;;7.85;60.18;102010.66;5063804;28;61947;-75
2021/12/21 05:20:53;;;;;;;;;19.25;15.50;;;;;7.83;60.08;102017.47;5062474;28;62762;-75
2021/12/21 05:23:19;;;;;;;;;26.25;16.25;;;;;7.76;59.60;102013.50;5063564;28;61938;-75
2021/12/21 05:25:45;;;;;;;;;19.75;15.25;;;;;7.74;60.25;102015.06;5061573;28;61875;-74
2021/12/21 05:28:13;;;;;;;;;10.50;10.00;;;;;7.69;60.38;102013.78;5063192;28;61939;-75
2021/12/21 05:30:39;;;;;;;;;23.00;16.50;;;;;7.71;60.90;102018.38;5062866;28;62499;-75
2021/12/21 05:33:06;;;;;;;;;20.50;18.75;;;;;7.70;60.09;102006.09;5063095;28;61695;-76
2021/12/21 05:35:34;;;;;;;;;17.75;15.75;;;;;7.71;60.48;102009.59;5078813;28;62575;-75
2021/12/21 05:38:05;;;;;;;;;20.50;13.25;;;;;7.69;60.12;102019.03;5063375;28;61840;-75
2021/12/21 05:40:38;;;;;;;;;15.50;12.50;;;;;7.66;60.76;102026.66;5061419;28;63797;-75
2021/12/21 05:43:05;;;;;;;;;22.75;16.75;;;;;7.62;60.60;102024.59;5062500;28;61811;-75
2021/12/21 05:45:31;;;;;;;;;12.25;9.75;;;;;7.57;60.69;102022.53;5061884;28;61671;-75
2021/12/21 05:47:56;;;;;;;;;20.75;14.50;;;;;7.56;61.12;102018.13;5061862;28;61917;-75
2021/12/21 05:50:22;;;;;;;;;19.00;15.00;;;;;7.54;61.01;102013.53;5060842;28;63074;-75
2021/12/21 05:52:48;;;;;;;;;22.50;17.50;;;;;7.51;60.68;102014.22;5063054;28;61944;-75
2021/12/21 05:55:16;;;;;;;;;18.00;15.00;;;;;7.54;61.32;102014.47;5061153;28;61732;-75
2021/12/21 05:57:41;;;;;;;;;18.00;12.25;;;;;7.53;61.33;102023.09;5053276;28;62236;-75
2021/12/21 06:00:11;;;;;;;;;16.50;14.75;;;;;7.55;60.87;102021.50;5060769;28;64930;-75
2021/12/21 06:02:43;;;;;;;;;21.50;15.25;;;;;7.55;60.69;102031.94;5063020;28;61911;-75
2021/12/21 06:05:14;;;;;;;;;19.50;12.00;;;;;7.50;60.99;102017.66;5060859;28;62081;-75
2021/12/21 06:07:41;;;;;;;;;20.50;16.50;;;;;7.46;61.28;102025.13;5062885;28;61812;-75
2021/12/21 06:10:15;;;;;;;;;28.25;22.50;;;;;7.46;61.32;102030.34;5077447;28;61930;-75
2021/12/21 06:25:54;;;;;;;;;33.75;30.75;;;;;7.37;61.33;102033.19;5060279;28;61875;-71
2021/12/21 06:28:20;;;;;;;;;30.00;29.00;;;;;7.36;61.83;102036.56;5074637;28;62277;-73
2021/12/21 06:30:46;;;;;;;;;32.25;27.50;;;;;7.35;62.02;102033.03;5041889;28;61831;-73
2021/12/21 06:33:11;;;;;;;;;36.25;29.25;;;;;7.34;61.99;102027.69;5042151;28;61872;-72
2021/12/21 06:35:38;;;;;;;;;38.50;33.75;;;;;7.35;61.73;102033.03;5041764;28;61807;-73
2021/12/21 06:38:05;;;;;;;;;41.25;32.50;;;;;7.33;62.00;102028.50;5042260;28;61894;-72
2021/12/21 06:40:31;;;;;;;;;33.67;26.67;;;;;7.35;61.79;102030.44;5056135;28;61727;-71
2021/12/21 06:43:01;;;;;;;;;36.25;28.50;;;;;7.34;61.83;102018.16;5061813;28;61870;-72
2021/12/21 06:45:43;;;;;;;;;27.75;20.25;;;;;7.32;61.91;102029.28;5074949;28;62082;-73
2021/12/21 06:51:14;;;;;;;;;21.25;21.25;;;;;7.30;61.89;102010.88;5061355;28;61729;-73
2021/12/21 06:53:43;;;;;;;;;25.50;23.00;;;;;7.28;61.61;102011.53;5062163;28;61752;-74
2021/12/21 06:56:09;;;;;;;;;26.00;20.75;;;;;7.27;61.41;102025.41;5052117;28;62007;-73
2021/12/21 06:58:35;;;;;;;;;20.50;17.75;;;;;7.21;61.27;102024.94;5060169;28;61721;-73
2021/12/21 07:01:01;;;;;;;;;22.75;17.00;;;;;7.20;61.93;102030.94;5061271;28;61722;-74
2021/12/21 07:03:27;;;;;;;;;17.75;14.75;;;;;7.17;62.09;102031.59;5060403;28;61911;-73
2021/12/21 07:05:53;;;;;;;;;12.25;11.75;;;;;7.17;62.48;102026.38;5059341;28;61957;-74
2021/12/21 07:08:26;;;;;;;;;30.50;24.50;;;;;7.16;61.99;102021.97;5062105;28;61895;-73
2021/12/21 07:11:01;;;;;;;;;25.75;20.50;;;;;7.16;62.10;102030.69;5093663;27;63448;-73
2021/12/21 07:18:55;;;;;;;;;14.50;9.50;;;;;7.11;62.44;102016.41;5062018;28;61811;-74
2021/12/21 07:21:20;;;;;;;;;22.75;16.50;;;;;7.13;62.16;102024.31;5060777;28;62896;-74
2021/12/21 07:23:46;;;;;;;;;25.50;17.50;;;;;7.12;61.73;102027.75;5061511;28;61777;-73
2021/12/21 07:26:11;;;;;;;;;18.00;14.50;;;;;7.07;61.74;102027.38;5093887;27;62001;-73
2021/12/21 07:28:37;;;;;;;;;29.25;17.25;;;;;7.06;62.34;102030.75;5061942;28;61875;-72
2021/12/21 07:31:02;;;;;;;;;31.00;23.50;;;;;7.09;61.99;102032.69;5064860;28;62774;-72
2021/12/21 07:33:28;;;;;;;;;36.50;31.75;;;;;7.08;62.69;102037.03;5079730;22;61744;-76
2021/12/21 07:35:53;;;;;;;;;28.00;23.50;;;;;7.06;62.52;102035.09;5065500;28;62287;-76
2021/12/21 07:38:19;;;;;;;;;29.25;22.25;;;;;7.05;62.42;102039.41;5063569;28;62003;-76
2021/12/21 07:40:45;;;;;;;;;26.75;20.25;;;;;7.07;62.08;102047.34;5063354;28;64089;-74
2021/12/21 07:43:11;;;;;;;;;19.75;16.25;;;;;7.05;62.51;102041.06;5063055;28;61889;-75
2021/12/21 07:45:37;;;;;;;;;17.75;15.75;;;;;7.01;61.81;102037.34;5063490;28;62321;-74
2021/12/21 07:48:03;;;;;;;;;22.25;17.00;;;;;7.00;62.55;102045.94;5063447;28;62013;-76
2021/12/21 07:50:28;;;;;;;;;28.50;18.25;;;;;6.96;62.33;102041.25;5064359;28;61806;-74
2021/12/21 07:52:55;;;;;;;;;24.50;18.00;;;;;6.95;62.47;102035.16;5064737;28;62233;-73
2021/12/21 07:55:22;;;;;;;;;28.00;19.50;;;;;6.94;62.33;102048.06;5064310;28;61784;-74
2021/12/21 07:57:47;;;;;;;;;23.75;18.50;;;;;6.93;63.00;102038.44;5065083;28;61688;-75
2021/12/21 08:00:14;;;;;;;;;26.50;22.75;;;;;6.96;62.88;102047.41;5064013;28;61872;-77
2021/12/21 08:02:40;;;;;;;;;25.50;24.25;;;;;6.99;62.30;102043.22;5064720;28;61796;-76
2021/12/21 08:05:09;;;;;;;;;28.50;21.75;;;;;7.00;62.47;102048.56;5065009;28;61855;-74
2021/12/21 08:07:44;;;;;;;;;26.50;20.75;;;;;7.04;62.31;102053.22;5080226;27;61768;-76
2021/12/21 08:10:20;;;;;;;;;26.50;21.00;;;;;7.05;62.39;102051.53;5079869;28;64618;-75
2021/12/21 08:12:46;;;;;;;;;22.50;19.00;;;;;7.04;61.58;102055.84;5064581;28;62671;-75
2021/12/21 08:15:11;;;;;;;;;19.00;16.75;;;;;7.04;62.51;102050.63;5064886;28;61908;-77
2021/12/21 08:17:37;;;;;;;;;19.50;19.50;;;;;7.08;62.26;102052.69;5064719;28;62109;-76
2021/12/21 08:20:04;;;;;;;;;36.00;29.00;;;;;7.12;62.53;102056.47;5079474;28;63815;-77
2021/12/21 08:22:29;;;;;;;;;24.50;21.00;;;;;7.12;61.78;102046.91;5062756;28;61732;-77
2021/12/21 08:24:54;;;;;;;;;27.25;23.75;;;;;7.11;61.59;102047.72;5064616;28;61776;-74
2021/12/21 08:27:20;;;;;;;;;26.75;20.25;;;;;7.15;62.02;102049.78;5079924;28;62177;-76
2021/12/21 08:29:45;;;;;;;;;28.50;18.75;;;;;7.18;61.99;102049.09;5064058;28;61829;-77
2021/12/21 08:32:11;;;;;;;;;25.00;18.25;;;;;7.18;62.03;102059.56;5064396;28;62063;-78
2021/12/21 08:34:37;;;;;;;;;28.75;24.00;;;;;7.19;61.59;102050.91;5063825;28;62201;-77
2021/12/21 08:37:03;;;;;;;;;23.75;21.75;;;;;7.17;61.83;102049.88;5064512;28;61955;-77
2021/12/21 08:39:37;;;;;;;;;27.25;25.25;;;;;7.21;61.58;102058.88;5058201;28;62214;-75
2021/12/21 08:42:02;;;;;;;;;33.50;28.50;;;;;7.23;61.72;102052.06;5058344;28;62068;-75
2021/12/21 08:44:29;;;;;;;;;30.75;25.25;;;;;7.22;61.28;102042.41;5051496;28;61919;-75
2021/12/21 08:46:58;;;;;;;;;26.50;26.25;;;;;7.28;61.17;102055.94;5079314;28;62220;-75
2021/12/21 08:49:25;;;;;;;;;29.25;23.50;;;;;7.28;60.97;102048.09;5061945;28;63815;-75
2021/12/21 08:51:50;;;;;;;;;28.00;27.25;;;;;7.25;61.10;102050.50;5062898;28;61829;-76
2021/12/21 08:54:16;;;;;;;;;32.75;21.50;;;;;7.29;61.90;102042.13;5061680;28;61943;-76
2021/12/21 08:56:44;;;;;;;;;30.50;27.75;;;;;7.31;61.40;102043.13;5070290;28;62188;-77
2021/12/21 08:59:10;;;;;;;;;23.75;20.50;;;;;7.37;61.44;102047.13;5063135;28;62024;-78
2021/12/21 09:01:36;;;;;;;;;27.50;25.50;;;;;7.43;60.94;102051.00;5063697;28;61717;-79
2021/12/21 09:04:01;;;;;;;;;32.75;23.25;;;;;7.44;60.92;102050.22;5062837;28;61891;-78
2021/12/21 09:06:27;;;;;;;;;26.00;21.00;;;;;7.40;60.55;102054.28;5079156;28;62158;-78
2021/12/21 09:08:52;;;;;;;;;39.50;27.00;;;;;7.46;60.53;102056.47;5063399;28;61767;-76
2021/12/21 09:11:18;;;;;;;;;28.50;23.50;;;;;7.51;61.10;102061.25;5079499;28;61968;-74
2021/12/21 09:13:43;;;;;;;;;23.00;18.50;;;;;7.53;60.17;102058.75;5079209;28;62231;-75
2021/12/21 09:16:08;;;;;;;;;28.75;22.75;;;;;7.53;60.69;102067.50;5079380;28;61930;-73
2021/12/21 09:18:34;;;;;;;;;30.25;26.00;;;;;7.56;60.65;102056.38;5062521;28;61931;-75
2021/12/21 09:21:01;;;;;;;;;27.25;20.25;;;;;7.61;59.94;102054.16;5057599;28;61923;-75
2021/12/21 09:23:28;;;;;;;;;36.25;26.75;;;;;7.66;60.49;102061.53;5074100;27;61884;-74
2021/12/21 09:25:54;;;;;;;;;31.50;26.00;;;;;7.70;60.19;102070.50;5053520;27;62161;-78
2021/12/21 09:28:19;;;;;;;;;29.50;24.50;;;;;7.72;59.93;102066.31;5067043;28;63528;-77
2021/12/21 09:30:46;;;;;;;;;23.75;20.50;;;;;7.74;59.93;102063.03;5049101;28;62094;-77
2021/12/21 09:33:11;;;;;;;;;28.25;25.50;;;;;7.73;59.50;102065.50;5055747;28;62197;-77
2021/12/21 09:35:37;;;;;;;;;53.33;41.00;;;;;7.72;59.74;102064.59;5054848;28;62933;-78
2021/12/21 09:38:03;;;;;;;;;25.00;21.00;;;;;7.77;59.04;102064.94;5050711;28;63851;-76
2021/12/21 09:40:30;;;;;;;;;27.75;25.75;;;;;7.79;59.44;102060.75;5072593;28;62279;-75
2021/12/21 09:42:58;;;;;;;;;23.50;21.75;;;;;7.78;58.88;102067.69;5051419;28;62244;-74
2021/12/21 09:45:24;;;;;;;;;33.50;29.50;;;;;7.80;59.37;102062.59;5043016;28;61774;-75
2021/12/21 09:47:50;;;;;;;;;19.25;17.50;;;;;7.82;58.67;102074.06;5046921;28;61889;-74
2021/12/21 09:50:17;;;;;;;;;28.50;26.50;;;;;7.88;58.79;102064.06;5062488;28;61743;-76
2021/12/21 09:52:43;;;;;;;;;23.50;23.25;;;;;7.93;58.54;102059.19;5062980;28;61829;-74
2021/12/21 09:55:12;;;;;;;;;35.00;27.00;;;;;7.98;58.53;102063.06;5078461;27;61855;-74
2021/12/21 09:57:38;;;;;;;;;32.50;21.75;;;;;7.97;58.69;102067.38;5075901;28;63580;-79
2021/12/21 10:00:27;;;;;;;;;25.50;22.25;;;;;8.08;58.11;102067.28;5078448;28;61706;-75
2021/12/21 10:03:01;;;;;;;;;30.00;21.25;;;;;8.11;57.96;102072.75;5062850;28;61837;-76
2021/12/21 10:05:27;;;;;;;;;25.75;20.75;;;;;8.13;57.74;102071.16;5063136;28;61977;-74
2021/12/21 10:08:16;;;;;;;;;23.75;21.25;;;;;8.21;58.28;102072.63;5058788;28;62163;-77
2021/12/21 10:10:50;;;;;;;;;29.25;25.50;;;;;8.31;57.78;102064.69;5059646;28;62122;-75
2021/12/21 10:13:18;;;;;;;;;44.00;31.50;;;;;8.39;57.64;102076.59;5062244;28;61793;-75
2021/12/21 10:15:47;;;;;;;;;47.00;38.67;;;;;8.48;57.73;102065.03;5058765;28;62140;-75
2021/12/21 10:18:14;;;;;;;;;40.00;27.50;;;;;8.56;57.14;102075.25;5060624;28;63799;-75
2021/12/21 10:20:43;;;;;;;;;25.75;20.00;;;;;8.62;56.92;102077.44;5061526;28;62029;-75
2021/12/21 10:23:20;;;;;;;;;42.50;31.25;;;;;8.65;57.12;102068.88;5060514;28;62071;-75
2021/12/21 10:25:53;;;;;;;;;39.00;35.25;;;;;8.79;57.16;102071.69;5062141;28;61745;-78
2021/12/21 10:28:36;;;;;;;;;44.25;31.75;;;;;8.85;57.57;102067.69;5060452;28;62513;-75
2021/12/21 10:31:08;;;;;;;;;52.75;36.75;;;;;8.92;56.80;102070.88;5065050;27;61963;-75
2021/12/21 10:33:36;;;;;;;;;43.75;32.00;;;;;8.99;56.43;102066.97;5050556;28;62130;-76
2021/12/21 10:36:06;;;;;;;;;62.00;45.67;;;;;9.06;57.04;102058.78;5052513;28;61997;-76
2021/12/21 10:38:36;;;;;;;;;40.25;28.50;;;;;9.12;56.47;102051.31;5051473;28;61932;-75
2021/12/21 10:41:11;;;;;;;;;45.00;35.25;;;;;9.19;56.47;102057.91;5065162;28;61890;-76
2021/12/21 10:43:37;;;;;;;;;44.25;32.75;;;;;9.24;56.42;102053.91;5050209;28;62404;-78
2021/12/21 10:46:04;;;;;;;;;35.00;31.00;;;;;9.28;56.53;102049.81;5050201;28;61916;-76
2021/12/21 10:48:35;;;;;;;;;40.00;35.50;;;;;9.34;56.28;102039.72;5062475;28;63482;-74
2021/12/21 10:51:00;;;;;;;;;66.67;50.00;;;;;9.40;56.50;102045.41;5070143;28;62449;-74
2021/12/21 10:53:27;;;;;;;;;65.67;53.33;;;;;9.50;56.49;102047.88;5067352;27;63071;-73
2021/12/21 10:56:07;;;;;;;;;26.75;22.25;;;;;9.51;55.53;102048.75;5051838;28;62063;-74
2021/12/21 10:58:41;;;;;;;;;34.25;28.00;;;;;9.50;55.17;102047.88;5051091;28;62205;-74
2021/12/21 11:01:10;;;;;;;;;31.75;24.75;;;;;9.56;55.47;102047.38;5050567;28;61790;-73
2021/12/21 11:03:49;;;;;;;;;35.50;26.25;;;;;9.61;55.88;102046.88;5073294;28;61984;-74
2021/12/21 11:06:19;;;;;;;;;71.67;50.67;;;;;9.70;55.66;102046.59;5049675;28;62174;-75
2021/12/21 11:08:53;;;;;;;;;76.00;53.33;;;;;9.77;55.74;102053.19;5051370;28;61831;-74
2021/12/21 11:11:44;;;;;;;;;45.50;38.50;;;;;9.82;55.14;102054.41;5067771;27;61933;-74
2021/12/21 11:14:14;;;;;;;;;41.25;31.75;;;;;9.88;55.00;102046.06;5049850;28;61998;-74
2021/12/21 11:16:45;;;;;;;;;25.25;23.25;;;;;9.88;54.66;102040.81;5056392;28;61887;-73
2021/12/21 11:19:13;;;;;;;;;46.00;40.00;;;;;9.96;56.15;102051.00;5059284;28;64125;-75
2021/12/21 11:21:41;;;;;;;;;38.00;31.25;;;;;10.09;55.50;102037.00;5040789;28;61905;-74
2021/12/21 11:24:12;;;;;;;;;31.25;25.50;;;;;10.24;54.67;102034.47;5041103;28;61955;-73
2021/12/21 11:26:39;;;;;;;;;28.50;23.25;;;;;10.37;54.26;102031.88;5041075;28;61821;-73
2021/12/21 11:29:12;;;;;;;;;34.00;26.00;;;;;10.49;54.27;102041.34;5040169;28;61834;-73
2021/12/21 11:31:49;;;;;;;;;44.25;33.75;;;;;10.61;53.97;102031.66;5040985;28;61869;-72
2021/12/21 11:34:20;;;;;;;;;26.25;21.75;;;;;10.68;53.85;102025.97;5074182;28;61851;-73
2021/12/21 11:39:33;;;;;;;;;36.25;30.50;;;;;10.87;53.14;102021.91;5050679;28;61916;-73
2021/12/21 11:42:04;;;;;;;;;33.50;30.25;;;;;11.03;53.30;102024.66;5050532;28;61956;-74
2021/12/21 11:44:54;;;;;;;;;38.00;30.50;;;;;11.17;52.95;102023.78;5064722;27;62018;-72
2021/12/21 11:47:44;;;;;;;;;37.25;25.75;;;;;11.34;52.93;102021.31;5051349;28;61892;-72
2021/12/21 11:50:10;;;;;;;;;27.50;24.50;;;;;11.38;51.01;102013.69;5050779;28;62030;-74
2021/12/21 11:52:54;;;;;;;;;23.75;23.75;;;;;11.25;50.60;102006.78;5066321;28;61959;-74
2021/12/21 11:55:25;;;;;;;;;28.00;23.50;;;;;11.39;51.53;101999.72;5051060;28;62512;-74
2021/12/21 11:58:02;;;;;;;;;25.00;20.25;;;;;11.46;51.18;101996.66;5050954;28;61889;-74
2021/12/21 12:00:34;;;;;;;;;48.00;37.00;;;;;11.61;50.38;101996.69;5048151;28;63430;-74
2021/12/21 12:03:13;;;;;;;;;32.25;29.25;;;;;11.68;50.15;102002.31;5049692;28;62067;-74
2021/12/21 12:05:49;;;;;;;;;37.00;25.25;;;;;11.80;51.43;101998.69;5051332;28;61818;-74
2021/12/21 12:08:14;;;;;;;;;37.75;24.00;;;;;11.79;49.34;101990.69;5054107;28;61820;-74
2021/12/21 12:10:46;;;;;;;;;23.25;17.25;;;;;11.74;49.63;101992.13;5063199;28;64858;-74
2021/12/21 12:13:15;;;;;;;;;28.50;22.75;;;;;11.66;49.94;101986.44;5068842;28;61823;-74
2021/12/21 12:16:04;;;;;;;;;24.00;18.25;;;;;11.66;50.03;101987.31;5048107;28;61754;-74
2021/12/21 12:18:47;;;;;;;;;41.25;36.75;;;;;11.80;50.61;101972.38;5053784;28;61876;-75
2021/12/21 12:21:25;;;;;;;;;28.25;20.00;;;;;12.00;50.61;101976.19;5048056;28;61919;-76